Time;durP1;ratioP1;P1;durP2;ratioP2;P2;SDS_P1;SDS_P2;PMS_P1;PMS_P2;Temp;Humidity;BMP_temperature;BMP_pressure;BME280_temperature;BME280_humidity;BME280_pressure;Samples;Min_cycle;Max_cycle;Signal;HPM_P1;HPM_P2
2021/06/08 00:00:11;;;;;;;1.00;1.00;;;;;;;-148.58;100.00;55229.56;4990885;28;20153;-64
2021/06/08 00:02:36;;;;;;;1.33;1.23;;;;;;;-148.58;100.00;55229.56;4990758;28;20049;-65
2021/06/08 00:05:01;;;;;;;2.00;1.02;;;;;;;-148.58;100.00;55229.56;4990751;28;20042;-65
2021/06/08 00:07:26;;;;;;;1.80;1.05;;;;;;;-148.58;100.00;55229.56;4990789;28;20023;-63
2021/06/08 00:09:52;;;;;;;1.95;1.33;;;;;;;-148.58;100.00;55229.56;4990364;28;20046;-64
2021/06/08 00:12:17;;;;;;;1.45;1.33;;;;;;;-148.58;100.00;55229.56;4990760;28;20413;-64
2021/06/08 00:14:42;;;;;;;1.60;1.38;;;;;;;-148.58;100.00;55229.56;4990410;28;20039;-64
2021/06/08 00:17:07;;;;;;;1.67;1.25;;;;;;;-148.58;100.00;55229.56;4990732;28;20425;-64
2021/06/08 00:19:33;;;;;;;1.83;1.33;;;;;;;-148.58;100.00;55229.56;4990342;28;20026;-64
2021/06/08 00:21:58;;;;;;;2.83;1.35;;;;;;;-148.58;100.00;55229.56;5005506;28;20496;-64
2021/06/08 00:24:24;;;;;;;2.13;1.35;;;;;;;-148.58;100.00;55229.56;5032447;28;20068;-64
2021/06/08 00:26:49;;;;;;;1.30;1.02;;;;;;;-148.58;100.00;55229.56;5032025;28;20045;-65
2021/06/08 00:29:14;;;;;;;1.63;1.20;;;;;;;-148.58;100.00;55229.56;5033323;28;20029;-63
2021/06/08 00:31:40;;;;;;;2.10;1.30;;;;;;;-148.58;100.00;55229.56;5035832;28;20030;-64
2021/06/08 00:34:05;;;;;;;1.38;1.23;;;;;;;-148.58;100.00;55229.56;5036406;28;20033;-63
2021/06/08 00:36:30;;;;;;;1.77;1.23;;;;;;;-148.58;100.00;55229.56;5036237;28;20033;-64
2021/06/08 00:38:56;;;;;;;1.30;1.20;;;;;;;-148.58;100.00;55229.56;5036139;28;20031;-63
2021/06/08 00:41:32;;;;;;;2.25;1.27;;;;;;;-148.58;100.00;55229.56;5036236;28;20523;-64
2021/06/08 00:44:01;;;;;;;1.60;1.50;;;;;;;-148.58;100.00;55229.56;5035894;28;20048;-64
2021/06/08 00:46:26;;;;;;;2.03;1.35;;;;;;;-148.58;100.00;55229.56;5036228;28;20025;-64
2021/06/08 00:48:52;;;;;;;1.17;1.08;;;;;;;-148.58;100.00;55229.56;5035814;28;20029;-64
2021/06/08 00:51:17;;;;;;;1.42;1.17;;;;;;;-148.58;100.00;55229.56;5036122;28;20022;-64
2021/06/08 00:53:42;;;;;;;1.33;1.23;;;;;;;-148.58;100.00;55229.56;5036318;28;20038;-64
2021/06/08 00:56:07;;;;;;;2.60;1.10;;;;;;;-148.58;100.00;55229.56;5035909;28;20039;-65
2021/06/08 00:58:33;;;;;;;2.63;1.20;;;;;;;-148.58;100.00;55229.56;5035872;28;20031;-65
2021/06/08 01:00:58;;;;;;;1.38;1.27;;;;;;;-148.58;100.00;55229.56;5035692;28;20080;-65
2021/06/08 01:03:23;;;;;;;1.83;1.40;;;;;;;-148.58;100.00;55229.56;5035852;28;20030;-65
2021/06/08 01:05:48;;;;;;;1.65;1.40;;;;;;;-148.58;100.00;55229.56;5035592;28;20384;-65
2021/06/08 01:08:14;;;;;;;2.30;1.45;;;;;;;-148.58;100.00;55229.56;5035784;28;20026;-66
2021/06/08 01:10:39;;;;;;;1.55;1.35;;;;;;;-148.58;100.00;55229.56;5017793;28;20052;-64
2021/06/08 01:13:05;;;;;;;1.60;1.30;;;;;;;-148.58;100.00;55229.56;5035523;28;20025;-66
2021/06/08 01:15:30;;;;;;;1.13;1.02;;;;;;;-148.58;100.00;55229.56;5035460;28;20483;-65
2021/06/08 01:17:56;;;;;;;1.50;1.30;;;;;;;-148.58;100.00;55229.56;5035446;28;20033;-65
2021/06/08 01:20:21;;;;;;;1.23;1.13;;;;;;;-148.58;100.00;55229.56;5035578;28;20058;-65
2021/06/08 01:22:46;;;;;;;1.88;1.10;;;;;;;-148.58;100.00;55229.56;5035214;28;20022;-65
2021/06/08 01:25:12;;;;;;;1.67;1.30;;;;;;;-148.58;100.00;55229.56;5035469;28;20094;-65
2021/06/08 01:27:40;;;;;;;1.33;1.10;;;;;;;-148.58;100.00;55229.56;5035111;28;20030;-65
2021/06/08 01:30:06;;;;;;;2.33;1.42;;;;;;;-148.58;100.00;55229.56;5035639;28;20115;-65
2021/06/08 01:32:33;;;;;;;1.30;1.20;;;;;;;-148.58;100.00;55229.56;5035216;28;20415;-65
2021/06/08 01:34:59;;;;;;;1.42;1.20;;;;;;;-148.58;100.00;55229.56;5035099;28;20060;-66
2021/06/08 01:37:24;;;;;;;1.30;1.20;;;;;;;-148.58;100.00;55229.56;5035176;28;20064;-65
2021/06/08 01:39:51;;;;;;;2.25;1.10;;;;;;;-148.58;100.00;55229.56;5034610;28;20029;-64
2021/06/08 01:42:16;;;;;;;1.42;1.13;;;;;;;-148.58;100.00;55229.56;5035153;28;20029;-65
2021/06/08 01:44:44;;;;;;;1.25;1.08;;;;;;;-148.58;100.00;55229.56;5034598;28;20056;-65
2021/06/08 01:47:10;;;;;;;1.85;1.45;;;;;;;-148.58;100.00;55229.56;5035058;28;20026;-65
2021/06/08 01:49:36;;;;;;;1.30;1.20;;;;;;;-148.58;100.00;55229.56;5034744;28;20035;-64
2021/06/08 01:52:39;;;;;;;2.25;1.17;;;;;;;-148.58;100.00;55229.56;5035048;28;20029;-65
2021/06/08 01:55:17;;;;;;;1.08;0.95;;;;;;;-148.58;100.00;55229.56;5034812;28;20036;-65
2021/06/08 01:57:51;;;;;;;1.20;1.10;;;;;;;-148.58;100.00;55229.56;5034483;28;20033;-66
2021/06/08 02:00:20;;;;;;;1.48;1.10;;;;;;;-148.58;100.00;55229.56;5034851;28;20053;-66
2021/06/08 02:03:04;;;;;;;1.05;0.95;;;;;;;-148.58;100.00;55229.56;5034537;28;20053;-64
2021/06/08 02:05:45;;;;;;;1.38;0.82;;;;;;;-148.58;100.00;55229.56;5034577;28;20060;-65
2021/06/08 02:08:20;;;;;;;1.95;1.27;;;;;;;-148.58;100.00;55229.56;5034668;28;20874;-64
2021/06/08 02:10:54;;;;;;;1.05;0.90;;;;;;;-148.58;100.00;55229.56;5034220;28;20033;-66
2021/06/08 02:13:41;;;;;;;1.02;0.93;;;;;;;-148.58;100.00;55229.56;5034913;28;20032;-65
2021/06/08 02:16:15;;;;;;;1.25;1.15;;;;;;;-148.58;100.00;55229.56;5034436;28;20037;-65
2021/06/08 02:18:43;;;;;;;1.67;1.15;;;;;;;-148.58;100.00;55229.56;5034340;28;20104;-65
2021/06/08 02:21:10;;;;;;;1.30;1.02;;;;;;;-148.58;100.00;55229.56;5034372;28;20052;-65
2021/06/08 02:23:37;;;;;;;1.45;1.10;;;;;;;-148.58;100.00;55229.56;5034177;28;20033;-66
2021/06/08 02:26:04;;;;;;;1.63;1.20;;;;;;;-148.58;100.00;55229.56;5034218;28;20022;-65
2021/06/08 02:28:34;;;;;;;2.42;1.40;;;;;;;-148.58;100.00;55229.56;5034249;28;20037;-65
2021/06/08 02:31:03;;;;;;;0.90;0.90;;;;;;;-148.58;100.00;55229.56;5033995;28;20365;-65
2021/06/08 02:33:28;;;;;;;1.40;1.23;;;;;;;-148.58;100.00;55229.56;5034131;28;20055;-66
2021/06/08 02:35:54;;;;;;;1.58;1.05;;;;;;;-148.58;100.00;55229.56;5033966;28;20029;-65
2021/06/08 02:38:20;;;;;;;1.50;1.38;;;;;;;-148.58;100.00;55229.56;5034110;28;20025;-65
2021/06/08 02:40:46;;;;;;;1.05;1.02;;;;;;;-148.58;100.00;55229.56;5033768;28;20049;-66
2021/06/08 02:43:12;;;;;;;1.45;1.30;;;;;;;-148.58;100.00;55229.56;5033880;28;20061;-66
2021/06/08 02:45:40;;;;;;;1.70;1.20;;;;;;;-148.58;100.00;55229.56;5033738;28;20029;-65
2021/06/08 02:48:06;;;;;;;1.55;1.15;;;;;;;-148.58;100.00;55229.56;5033892;28;20021;-65
2021/06/08 02:50:32;;;;;;;2.38;1.60;;;;;;;-148.58;100.00;55229.56;5033795;28;20068;-66
2021/06/08 02:52:58;;;;;;;1.05;0.95;;;;;;;-148.58;100.00;55229.56;5032748;28;20160;-65
2021/06/08 02:55:25;;;;;;;2.42;1.30;;;;;;;-148.58;100.00;55229.56;5033756;28;20021;-65
2021/06/08 02:57:52;;;;;;;1.08;0.98;;;;;;;-148.58;100.00;55229.56;5033483;28;20041;-65
2021/06/08 03:00:19;;;;;;;1.15;1.05;;;;;;;-148.58;100.00;55229.56;5033710;28;20036;-65
2021/06/08 03:02:46;;;;;;;1.02;1.02;;;;;;;-148.58;100.00;55229.56;5033359;28;20024;-66
2021/06/08 03:05:23;;;;;;;1.42;1.20;;;;;;;-148.58;100.00;55229.56;5033583;28;20033;-65
2021/06/08 03:07:52;;;;;;;1.40;1.30;;;;;;;-148.58;100.00;55229.56;5033329;28;20034;-65
2021/06/08 03:10:20;;;;;;;1.23;1.10;;;;;;;-148.58;100.00;55229.56;5015770;28;20022;-65
2021/06/08 03:12:56;;;;;;;1.67;1.13;;;;;;;-148.58;100.00;55229.56;5033134;28;20461;-65
2021/06/08 03:15:28;;;;;;;1.60;1.25;;;;;;;-148.58;100.00;55229.56;5033443;28;20025;-65
2021/06/08 03:17:54;;;;;;;1.52;1.40;;;;;;;-148.58;100.00;55229.56;5033075;28;20037;-65
2021/06/08 03:20:30;;;;;;;1.35;1.02;;;;;;;-148.58;100.00;55229.56;5033367;28;20119;-66
2021/06/08 03:23:00;;;;;;;1.65;1.35;;;;;;;-148.58;100.00;55229.56;5033101;28;20025;-65
2021/06/08 03:25:27;;;;;;;1.05;0.90;;;;;;;-148.58;100.00;55229.56;5033135;28;20021;-66
2021/06/08 03:27:54;;;;;;;1.48;1.27;;;;;;;-148.58;100.00;55229.56;5033014;28;20112;-65
2021/06/08 03:30:20;;;;;;;1.05;1.00;;;;;;;-148.58;100.00;55229.56;5033144;28;20025;-65
2021/06/08 03:32:46;;;;;;;1.30;1.00;;;;;;;-148.58;100.00;55229.56;5032721;28;20472;-65
2021/06/08 03:35:12;;;;;;;1.13;1.02;;;;;;;-148.58;100.00;55229.56;5033029;28;20052;-66
2021/06/08 03:37:40;;;;;;;1.08;1.00;;;;;;;-148.58;100.00;55229.56;5032824;28;20021;-65
2021/06/08 03:40:07;;;;;;;1.02;1.00;;;;;;;-148.58;100.00;55229.56;5032968;28;20075;-65
2021/06/08 03:42:32;;;;;;;3.05;1.40;;;;;;;-148.58;100.00;55229.56;5032822;28;20021;-67
2021/06/08 03:44:58;;;;;;;2.83;1.20;;;;;;;-148.58;100.00;55229.56;5032721;28;20385;-65
2021/06/08 03:47:24;;;;;;;1.23;1.00;;;;;;;-148.58;100.00;55229.56;5032797;28;20029;-66
2021/06/08 03:49:49;;;;;;;0.82;0.80;;;;;;;-148.58;100.00;55229.56;5032679;28;20028;-65
2021/06/08 03:52:15;;;;;;;2.45;0.90;;;;;;;-148.58;100.00;55229.56;5032673;28;20064;-66
2021/06/08 03:54:40;;;;;;;0.90;0.90;;;;;;;-148.58;100.00;55229.56;5032510;28;20048;-65
2021/06/08 03:57:07;;;;;;;1.70;1.00;;;;;;;-148.58;100.00;55229.56;5014821;28;20032;-66
2021/06/08 03:59:34;;;;;;;1.23;0.68;;;;;;;-148.58;100.00;55229.56;5032566;28;20033;-65
2021/06/08 04:02:01;;;;;;;1.13;0.70;;;;;;;-148.58;100.00;55229.56;5032554;28;20025;-66
2021/06/08 04:04:26;;;;;;;0.75;0.60;;;;;;;-148.58;100.00;55229.56;5031268;28;20129;-65
2021/06/08 04:06:52;;;;;;;0.70;0.63;;;;;;;-148.58;100.00;55229.56;5032300;28;20092;-65
2021/06/08 04:09:17;;;;;;;0.60;0.45;;;;;;;-148.58;100.00;55229.56;5032623;28;20053;-65
2021/06/08 04:11:48;;;;;;;1.00;0.70;;;;;;;-148.58;100.00;55229.56;5032217;28;20492;-65
2021/06/08 04:14:14;;;;;;;1.50;0.75;;;;;;;-148.58;100.00;55229.56;5031266;28;20029;-65
2021/06/08 04:16:39;;;;;;;1.65;0.60;;;;;;;-148.58;100.00;55229.56;5032157;28;20428;-66
2021/06/08 04:19:09;;;;;;;0.60;0.47;;;;;;;-148.58;100.00;55229.56;5030980;28;20248;-66
2021/06/08 04:21:35;;;;;;;0.77;0.77;;;;;;;-148.58;100.00;55229.56;5032294;28;20415;-66
2021/06/08 04:24:03;;;;;;;0.70;0.60;;;;;;;-148.58;100.00;55229.56;5032650;28;20025;-66
2021/06/08 04:26:29;;;;;;;1.25;0.55;;;;;;;-148.58;100.00;55229.56;5032360;28;20022;-65
2021/06/08 04:28:54;;;;;;;0.57;0.40;;;;;;;-148.58;100.00;55229.56;5032174;28;20024;-66
2021/06/08 04:31:23;;;;;;;1.65;0.43;;;;;;;-148.58;100.00;55229.56;5032370;28;20387;-65
2021/06/08 04:33:49;;;;;;;1.13;0.43;;;;;;;-148.58;100.00;55229.56;5032160;28;20030;-66
2021/06/08 04:36:15;;;;;;;0.80;0.30;;;;;;;-148.58;100.00;55229.56;5032351;28;20032;-65
2021/06/08 04:38:40;;;;;;;1.60;0.40;;;;;;;-148.58;100.00;55229.56;5032370;28;20523;-65
2021/06/08 04:41:07;;;;;;;0.73;0.40;;;;;;;-148.58;100.00;55229.56;5032251;28;20116;-66
2021/06/08 04:43:33;;;;;;;1.75;0.82;;;;;;;-148.58;100.00;55229.56;5031990;28;20038;-65
2021/06/08 04:46:03;;;;;;;0.43;0.35;;;;;;;-148.58;100.00;55229.56;5032207;28;20021;-65
2021/06/08 04:48:29;;;;;;;1.17;0.50;;;;;;;-148.58;100.00;55229.56;5032203;28;20052;-66
2021/06/08 04:50:54;;;;;;;0.95;0.75;;;;;;;-148.58;100.00;55229.56;5031976;28;20021;-66
2021/06/08 04:53:20;;;;;;;1.92;0.63;;;;;;;-148.58;100.00;55229.56;5032192;28;20025;-65
2021/06/08 04:55:46;;;;;;;2.70;0.55;;;;;;;-148.58;100.00;55229.56;5031817;28;20499;-65
2021/06/08 04:58:12;;;;;;;0.85;0.40;;;;;;;-148.58;100.00;55229.56;5032155;28;20036;-65
2021/06/08 05:01:19;;;;;;;1.10;0.60;;;;;;;-148.58;100.00;55229.56;5029840;28;20520;-65
2021/06/08 05:03:47;;;;;;;0.73;0.20;;;;;;;-148.58;100.00;55229.56;4982103;28;20068;-66
2021/06/08 05:06:16;;;;;;;0.45;0.32;;;;;;;-148.58;100.00;55229.56;5009946;28;20088;-67
2021/06/08 05:08:49;;;;;;;0.60;0.22;;;;;;;-148.58;100.00;55229.56;4998148;28;20521;-66
2021/06/08 05:11:30;;;;;;;0.32;0.28;;;;;;;-148.58;100.00;55229.56;4989790;28;20065;-64
2021/06/08 05:13:56;;;;;;;12.75;0.50;;;;;;;-148.58;100.00;55229.56;4990118;28;20030;-66
2021/06/08 05:16:26;;;;;;;0.77;0.20;;;;;;;-148.58;100.00;55229.56;4992810;28;20541;-62
2021/06/08 05:18:55;;;;;;;0.20;0.20;;;;;;;-148.58;100.00;55229.56;4993524;28;20040;-63
2021/06/08 05:21:21;;;;;;;0.55;0.20;;;;;;;-148.58;100.00;55229.56;5008833;28;20080;-64
2021/06/08 05:23:50;;;;;;;0.30;0.30;;;;;;;-148.58;100.00;55229.56;4979120;28;20073;-66
2021/06/08 05:26:16;;;;;;;0.93;0.40;;;;;;;-148.58;100.00;55229.56;5012891;28;20030;-64
2021/06/08 05:28:42;;;;;;;0.68;0.40;;;;;;;-148.58;100.00;55229.56;4998182;28;20045;-65
2021/06/08 05:31:08;;;;;;;1.25;0.90;;;;;;;-148.58;100.00;55229.56;4985372;28;20363;-65
2021/06/08 05:33:33;;;;;;;1.65;0.47;;;;;;;-148.58;100.00;55229.56;4994317;28;20533;-65
2021/06/08 05:35:59;;;;;;;1.17;0.40;;;;;;;-148.58;100.00;55229.56;5012914;28;20032;-64
2021/06/08 05:38:36;;;;;;;1.05;0.40;;;;;;;-148.58;100.00;55229.56;5004625;28;20073;-65
2021/06/08 05:41:08;;;;;;;1.38;0.32;;;;;;;-148.58;100.00;55229.56;5011532;28;20488;-67
2021/06/08 05:43:33;;;;;;;1.10;0.50;;;;;;;-148.58;100.00;55229.56;5022567;28;20050;-69
2021/06/08 05:45:59;;;;;;;5.43;0.80;;;;;;;-148.58;100.00;55229.56;5022344;28;20049;-68
2021/06/08 05:48:26;;;;;;;0.75;0.40;;;;;;;-148.58;100.00;55229.56;5010219;28;20025;-68
2021/06/08 05:51:00;;;;;;;4.30;1.35;;;;;;;-148.58;100.00;55229.56;5032573;28;20108;-66
2021/06/08 05:53:26;;;;;;;0.52;0.40;;;;;;;-148.58;100.00;55229.56;5033008;28;20170;-63
2021/06/08 05:55:54;;;;;;;1.80;0.70;;;;;;;-148.58;100.00;55229.56;5029574;28;20053;-63
2021/06/08 05:58:28;;;;;;;0.55;0.40;;;;;;;-148.58;100.00;55229.56;5034481;28;21331;-62
2021/06/08 06:00:54;;;;;;;0.88;0.30;;;;;;;-148.58;100.00;55229.56;5013118;28;20468;-63
2021/06/08 06:03:22;;;;;;;0.20;0.20;;;;;;;-148.58;100.00;55229.56;5028468;28;20048;-62
2021/06/08 06:05:48;;;;;;;0.75;0.50;;;;;;;-148.58;100.00;55229.56;5023537;28;20025;-62
2021/06/08 06:08:15;;;;;;;1.25;0.55;;;;;;;-148.58;100.00;55229.56;5019698;28;20057;-62
2021/06/08 06:10:44;;;;;;;1.45;0.45;;;;;;;-148.58;100.00;55229.56;5020290;28;20092;-62
2021/06/08 06:13:18;;;;;;;1.25;0.30;;;;;;;-148.58;100.00;55229.56;5024821;28;20037;-62
2021/06/08 06:15:47;;;;;;;0.60;0.40;;;;;;;-148.58;100.00;55229.56;5033214;28;20033;-63
2021/06/08 06:18:23;;;;;;;0.63;0.20;;;;;;;-148.58;100.00;55229.56;5028943;28;20084;-62
2021/06/08 06:20:53;;;;;;;0.55;0.43;;;;;;;-148.58;100.00;55229.56;5023477;28;20068;-62
2021/06/08 06:23:20;;;;;;;1.58;0.20;;;;;;;-148.58;100.00;55229.56;5022272;28;20214;-63
2021/06/08 06:25:48;;;;;;;1.20;0.40;;;;;;;-148.58;100.00;55229.56;5021793;28;20101;-64
2021/06/08 06:28:15;;;;;;;0.32;0.20;;;;;;;-148.58;100.00;55229.56;5026335;28;20061;-64
2021/06/08 06:30:41;;;;;;;0.40;0.20;;;;;;;-148.58;100.00;55229.56;5024485;28;20022;-64
2021/06/08 06:33:07;;;;;;;0.43;0.20;;;;;;;-148.58;100.00;55229.56;4998015;28;20029;-64
2021/06/08 06:35:33;;;;;;;0.40;0.20;;;;;;;-148.58;100.00;55229.56;5022181;28;20472;-65
2021/06/08 06:38:01;;;;;;;0.63;0.30;;;;;;;-148.58;100.00;55229.56;5033696;28;20075;-63
2021/06/08 06:40:31;;;;;;;0.20;0.20;;;;;;;-148.58;100.00;55229.56;5032790;28;20025;-64
2021/06/08 06:43:02;;;;;;;0.40;0.20;;;;;;;-148.58;100.00;55229.56;5031052;28;20159;-63
2021/06/08 06:45:28;;;;;;;1.23;0.22;;;;;;;-148.58;100.00;55229.56;5021601;28;20067;-64
2021/06/08 06:48:01;;;;;;;0.10;0.10;;;;;;;-148.58;100.00;55229.56;5014165;28;20018;-64
2021/06/08 06:50:27;;;;;;;0.22;0.20;;;;;;;-148.58;100.00;55229.56;5016137;28;20041;-64
2021/06/08 06:52:56;;;;;;;0.30;0.17;;;;;;;-148.58;100.00;55229.56;5032904;28;20037;-64
2021/06/08 06:55:22;;;;;;;0.10;0.10;;;;;;;-148.58;100.00;55229.56;5033781;28;20022;-64
2021/06/08 06:57:48;;;;;;;0.85;0.30;;;;;;;-148.58;100.00;55229.56;5031717;28;20419;-64
2021/06/08 07:00:15;;;;;;;0.30;0.20;;;;;;;-148.58;100.00;55229.56;5007188;28;20112;-63
2021/06/08 07:02:41;;;;;;;0.77;0.35;;;;;;;-148.58;100.00;55229.56;5027778;28;20022;-63
2021/06/08 07:05:09;;;;;;;0.50;0.30;;;;;;;-148.58;100.00;55229.56;5025566;28;20033;-67
2021/06/08 07:07:38;;;;;;;0.68;0.13;;;;;;;-148.58;100.00;55229.56;5024494;28;20021;-67
2021/06/08 07:10:04;;;;;;;0.85;0.25;;;;;;;-148.58;100.00;55229.56;5035320;28;20416;-68
2021/06/08 07:12:30;;;;;;;0.40;0.30;;;;;;;-148.58;100.00;55229.56;5037270;28;20064;-67
2021/06/08 07:14:55;;;;;;;0.85;0.32;;;;;;;-148.58;100.00;55229.56;5035396;28;20025;-68
2021/06/08 07:17:23;;;;;;;0.10;0.10;;;;;;;-148.58;100.00;55229.56;5037467;28;20062;-67
2021/06/08 07:19:52;;;;;;;1.13;0.25;;;;;;;-148.58;100.00;55229.56;5052625;28;20051;-67
2021/06/08 07:22:18;;;;;;;0.40;0.30;;;;;;;-148.58;100.00;55229.56;5051690;28;20045;-66
2021/06/08 07:24:44;;;;;;;0.45;0.25;;;;;;;-148.58;100.00;55229.56;5052062;28;20052;-68
2021/06/08 07:27:13;;;;;;;0.30;0.30;;;;;;;-148.58;100.00;55229.56;5051953;28;20420;-66
2021/06/08 07:29:39;;;;;;;0.73;0.15;;;;;;;-148.58;100.00;55229.56;5052051;28;20048;-66
2021/06/08 07:32:06;;;;;;;0.90;0.47;;;;;;;-148.58;100.00;55229.56;5052219;28;20039;-67
2021/06/08 07:34:40;;;;;;;0.20;0.20;;;;;;;-148.58;100.00;55229.56;5052193;28;20056;-67
2021/06/08 07:37:08;;;;;;;0.95;0.10;;;;;;;-148.58;100.00;55229.56;5029210;28;20154;-66
2021/06/08 07:39:41;;;;;;;0.50;0.20;;;;;;;-148.58;100.00;55229.56;5032363;28;20033;-67
2021/06/08 07:42:15;;;;;;;0.25;0.20;;;;;;;-148.58;100.00;55229.56;5032839;28;20108;-66
2021/06/08 07:44:58;;;;;;;0.87;0.37;;;;;;;-148.58;100.00;55229.56;5027913;28;20056;-68
2021/06/08 07:47:27;;;;;;;0.52;0.20;;;;;;;-148.58;100.00;55229.56;5006395;28;20030;-66
2021/06/08 07:49:54;;;;;;;0.17;0.17;;;;;;;-148.58;100.00;55229.56;5003067;28;20462;-67
2021/06/08 07:52:21;;;;;;;0.32;0.32;;;;;;;-148.58;100.00;55229.56;5008204;28;20030;-66
2021/06/08 07:54:51;;;;;;;0.70;0.40;;;;;;;-148.58;100.00;55229.56;5028338;28;20033;-69
2021/06/08 07:57:19;;;;;;;0.60;0.20;;;;;;;-148.58;100.00;55229.56;5013143;28;20026;-66
2021/06/08 07:59:45;;;;;;;0.80;0.40;;;;;;;-148.58;100.00;55229.56;5012522;28;20034;-67
2021/06/08 08:02:11;;;;;;;0.20;0.10;;;;;;;-148.58;100.00;55229.56;5011652;28;20018;-66
2021/06/08 08:04:41;;;;;;;0.65;0.38;;;;;;;-148.58;100.00;55229.56;5011871;28;20026;-67
2021/06/08 08:07:07;;;;;;;1.08;0.45;;;;;;;-148.58;100.00;55229.56;5026695;28;20052;-66
2021/06/08 08:09:33;;;;;;;0.70;0.50;;;;;;;-148.58;100.00;55229.56;5007188;28;20026;-65
2021/06/08 08:12:00;;;;;;;0.43;0.35;;;;;;;-148.58;100.00;55229.56;5012496;28;20022;-67
2021/06/08 08:14:26;;;;;;;0.70;0.65;;;;;;;-148.58;100.00;55229.56;5012018;28;20033;-66
2021/06/08 08:16:54;;;;;;;0.45;0.40;;;;;;;-148.58;100.00;55229.56;5007885;28;20018;-69
2021/06/08 08:19:20;;;;;;;0.73;0.40;;;;;;;-148.58;100.00;55229.56;5003511;28;20547;-67
2021/06/08 08:21:47;;;;;;;1.60;0.55;;;;;;;-148.58;100.00;55229.56;5012526;28;20120;-65
2021/06/08 08:24:13;;;;;;;0.57;0.47;;;;;;;-148.58;100.00;55229.56;5012756;28;20034;-65
2021/06/08 08:26:39;;;;;;;0.60;0.50;;;;;;;-148.58;100.00;55229.56;5012571;28;20028;-65
2021/06/08 08:29:05;;;;;;;1.60;0.20;;;;;;;-148.58;100.00;55229.56;5012404;28;20026;-70
2021/06/08 08:31:32;;;;;;;2.05;0.40;;;;;;;-148.58;100.00;55229.56;5012507;28;20030;-66
2021/06/08 08:33:58;;;;;;;2.92;0.40;;;;;;;-148.58;100.00;55229.56;5012707;28;20033;-71
2021/06/08 08:36:27;;;;;;;1.05;0.40;;;;;;;-148.58;100.00;55229.56;5003500;28;20371;-74
2021/06/08 08:38:53;;;;;;;0.35;0.20;;;;;;;-148.58;100.00;55229.56;5002735;28;20030;-69
2021/06/08 08:41:20;;;;;;;2.55;0.40;;;;;;;-148.58;100.00;55229.56;5003340;28;20041;-68
2021/06/08 08:43:48;;;;;;;1.77;0.22;;;;;;;-148.58;100.00;55229.56;5013052;28;20144;-71
2021/06/08 08:46:14;;;;;;;1.95;0.20;;;;;;;-148.58;100.00;55229.56;5033015;28;20033;-71
2021/06/08 08:48:42;;;;;;;0.70;0.20;;;;;;;-148.58;100.00;55229.56;5032764;28;20033;-68
2021/06/08 08:51:12;;;;;;;1.85;0.32;;;;;;;-148.58;100.00;55229.56;5034514;28;20100;-69
2021/06/08 08:53:38;;;;;;;0.82;0.40;;;;;;;-148.58;100.00;55229.56;5045970;28;20025;-69
2021/06/08 08:56:04;;;;;;;0.30;0.30;;;;;;;-148.58;100.00;55229.56;5035545;28;20025;-69
2021/06/08 08:58:30;;;;;;;0.90;0.20;;;;;;;-148.58;100.00;55229.56;5035001;28;20376;-66
2021/06/08 09:00:56;;;;;;;0.38;0.20;;;;;;;-148.58;100.00;55229.56;5035650;28;20049;-65
2021/06/08 09:03:22;;;;;;;0.80;0.10;;;;;;;-148.58;100.00;55229.56;5035789;28;20021;-64
2021/06/08 09:05:48;;;;;;;0.43;0.10;;;;;;;-148.58;100.00;55229.56;5036535;28;20025;-63
2021/06/08 09:08:14;;;;;;;0.65;0.10;;;;;;;-148.58;100.00;55229.56;5036684;28;20105;-63
2021/06/08 09:10:42;;;;;;;0.45;0.40;;;;;;;-148.58;100.00;55229.56;5030285;28;20056;-64
2021/06/08 09:13:07;;;;;;;0.13;0.10;;;;;;;-148.58;100.00;55229.56;5022565;28;20057;-64
2021/06/08 09:15:35;;;;;;;0.43;0.20;;;;;;;-148.58;100.00;55229.56;5022828;28;20109;-64
2021/06/08 09:18:00;;;;;;;0.13;0.00;;;;;;;-148.58;100.00;55229.56;5030422;28;20028;-65
2021/06/08 09:20:26;;;;;;;0.40;0.30;;;;;;;-148.58;100.00;55229.56;5035442;28;20021;-63
2021/06/08 09:22:57;;;;;;;1.15;0.20;;;;;;;-148.58;100.00;55229.56;5035076;28;20420;-62
2021/06/08 09:25:35;;;;;;;0.30;0.15;;;;;;;-148.58;100.00;55229.56;5035287;28;20377;-62
2021/06/08 09:28:21;;;;;;;0.10;0.10;;;;;;;-148.58;100.00;55229.56;5022051;28;20033;-63
2021/06/08 09:31:11;;;;;;;0.15;0.10;;;;;;;-148.58;100.00;55229.56;5033462;28;20052;-63
2021/06/08 09:33:45;;;;;;;0.22;0.20;;;;;;;-148.58;100.00;55229.56;4991816;28;20042;-62
2021/06/08 09:36:14;;;;;;;0.10;0.10;;;;;;;-148.58;100.00;55229.56;4993168;28;20030;-63
2021/06/08 09:38:52;;;;;;;0.00;0.00;;;;;;;-148.58;100.00;55229.56;4976764;28;20078;-62
2021/06/08 09:41:19;;;;;;;0.32;0.20;;;;;;;-148.58;100.00;55229.56;4993410;28;20460;-64
2021/06/08 09:43:50;;;;;;;0.63;0.10;;;;;;;-148.58;100.00;55229.56;4984205;28;20525;-62
2021/06/08 09:46:16;;;;;;;0.10;0.10;;;;;;;-148.58;100.00;55229.56;4987738;28;20049;-62
2021/06/08 09:49:05;;;;;;;0.40;0.10;;;;;;;-148.58;100.00;55229.56;4989576;28;20046;-63
2021/06/08 09:51:46;;;;;;;0.30;0.22;;;;;;;-148.58;100.00;55229.56;4988421;28;20202;-63
2021/06/08 09:54:45;;;;;;;0.17;0.15;;;;;;;-148.58;100.00;55229.56;5006456;28;20034;-62
2021/06/08 09:57:16;;;;;;;0.10;0.00;;;;;;;-148.58;100.00;55229.56;4966363;28;20551;-64
2021/06/08 09:59:45;;;;;;;0.40;0.10;;;;;;;-148.58;100.00;55229.56;4961725;28;20395;-64
2021/06/08 10:02:43;;;;;;;0.17;0.10;;;;;;;-148.58;100.00;55229.56;4966885;28;20031;-64
2021/06/08 10:05:29;;;;;;;0.95;0.40;;;;;;;-148.58;100.00;55229.56;4971958;28;20119;-64
2021/06/08 10:07:57;;;;;;;0.40;0.20;;;;;;;-148.58;100.00;55229.56;4972448;28;20129;-64
2021/06/08 10:10:34;;;;;;;0.47;0.20;;;;;;;-148.58;100.00;55229.56;4967570;28;20170;-64
2021/06/08 10:13:12;;;;;;;0.30;0.10;;;;;;;-148.58;100.00;55229.56;4972537;28;20030;-64
2021/06/08 10:15:52;;;;;;;0.20;0.10;;;;;;;-148.58;100.00;55229.56;4972651;28;20118;-64
2021/06/08 10:18:18;;;;;;;0.55;0.20;;;;;;;-148.58;100.00;55229.56;4971948;28;20031;-64
2021/06/08 10:20:48;;;;;;;0.35;0.13;;;;;;;-148.58;100.00;55229.56;4972984;28;20493;-63
2021/06/08 10:23:24;;;;;;;0.10;0.10;;;;;;;-148.58;100.00;55229.56;4973390;28;20493;-64
2021/06/08 10:25:52;;;;;;;0.17;0.00;;;;;;;-148.58;100.00;55229.56;4972904;28;20600;-64
2021/06/08 10:28:18;;;;;;;0.10;0.10;;;;;;;-148.58;100.00;55229.56;4973355;28;20034;-64
2021/06/08 10:30:45;;;;;;;0.20;0.20;;;;;;;-148.58;100.00;55229.56;4972260;28;20034;-64
2021/06/08 10:33:11;;;;;;;0.73;0.20;;;;;;;-148.58;100.00;55229.56;5000742;28;20389;-64
2021/06/08 10:35:37;;;;;;;0.82;0.20;;;;;;;-148.58;100.00;55229.56;5014255;28;20030;-64
2021/06/08 10:38:04;;;;;;;0.45;0.20;;;;;;;-148.58;100.00;55229.56;5014318;28;20034;-63
2021/06/08 10:40:30;;;;;;;0.13;0.10;;;;;;;-148.58;100.00;55229.56;5014349;28;20030;-64
2021/06/08 10:42:56;;;;;;;1.90;0.25;;;;;;;-148.58;100.00;55229.56;5013855;28;20527;-64
2021/06/08 10:45:22;;;;;;;0.82;0.22;;;;;;;-148.58;100.00;55229.56;5014351;28;20064;-64
2021/06/08 10:48:03;;;;;;;0.70;0.20;;;;;;;-148.58;100.00;55229.56;5012691;28;20025;-63
2021/06/08 10:50:30;;;;;;;0.13;0.10;;;;;;;-148.58;100.00;55229.56;5012969;28;20053;-64
2021/06/08 10:52:58;;;;;;;0.22;0.10;;;;;;;-148.58;100.00;55229.56;5013804;28;20026;-63
2021/06/08 10:55:28;;;;;;;0.50;0.20;;;;;;;-148.58;100.00;55229.56;5013978;28;20401;-63
2021/06/08 10:57:54;;;;;;;0.00;0.00;;;;;;;-148.58;100.00;55229.56;5030193;28;20029;-63
2021/06/08 11:00:25;;;;;;;0.00;0.00;;;;;;;-148.58;100.00;55229.56;5032563;28;20028;-64
2021/06/08 11:03:00;;;;;;;0.30;0.10;;;;;;;-148.58;100.00;55229.56;5032016;28;20447;-64
2021/06/08 11:05:44;;;;;;;0.30;0.30;;;;;;;-148.58;100.00;55229.56;5031134;28;20025;-63
2021/06/08 11:08:09;;;;;;;0.30;0.10;;;;;;;-148.58;100.00;55229.56;5032016;28;20013;-63
2021/06/08 11:10:42;;;;;;;0.47;0.20;;;;;;;-148.58;100.00;55229.56;5033065;28;20040;-64
2021/06/08 11:13:07;;;;;;;1.20;0.13;;;;;;;-148.58;100.00;55229.56;5032743;28;20328;-64
2021/06/08 11:15:33;;;;;;;0.10;0.05;;;;;;;-148.58;100.00;55229.56;5032859;28;20022;-64